createdAt,value
2023-02-14T00:01:48.284Z,5.93
2023-02-14T00:03:49.682Z,6.28
2023-02-14T00:05:51.061Z,6.60
2023-02-14T00:07:52.488Z,5.82
2023-02-14T00:09:53.854Z,5.88
2023-02-14T00:11:55.292Z,6.13
2023-02-14T00:14:15.647Z,6.18
2023-02-14T00:16:17.049Z,5.70
2023-02-14T00:18:19.717Z,6.00
2023-02-14T00:20:23.003Z,5.72
2023-02-14T00:22:24.472Z,6.43
2023-02-14T00:24:26.640Z,5.57
2023-02-14T00:26:28.024Z,6.25
2023-02-14T00:28:29.398Z,6.32
2023-02-14T00:32:33.086Z,5.97
2023-02-14T00:34:36.422Z,5.70
2023-02-14T00:36:38.638Z,6.15
2023-02-14T00:38:40.261Z,5.20
2023-02-14T00:40:41.685Z,5.35
2023-02-14T00:42:43.105Z,5.53
2023-02-14T00:44:44.501Z,6.10
2023-02-14T00:46:45.888Z,5.07
2023-02-14T00:48:47.552Z,4.90
2023-02-14T00:50:48.981Z,5.15
2023-02-14T00:52:50.388Z,4.70
2023-02-14T00:54:51.744Z,5.03
2023-02-14T00:56:53.144Z,5.60
2023-02-14T00:58:54.754Z,5.03
2023-02-14T01:00:56.861Z,5.25
2023-02-14T01:02:58.516Z,4.80
2023-02-14T01:04:59.923Z,5.07
2023-02-14T01:07:01.384Z,4.68
2023-02-14T01:09:03.375Z,6.03
2023-02-14T01:11:13.551Z,4.55
2023-02-14T01:13:15.071Z,4.78
2023-02-14T01:15:16.520Z,4.80
2023-02-14T01:17:36.378Z,5.40
2023-02-14T01:19:38.281Z,4.88
2023-02-14T01:44:15.207Z,5.88
2023-02-14T01:46:16.731Z,5.22
2023-02-14T01:48:21.680Z,5.97
2023-02-14T01:50:30.415Z,5.03
2023-02-14T01:52:37.336Z,5.85
2023-02-14T01:54:51.988Z,5.00
2023-02-14T01:57:03.888Z,6.00
2023-02-14T01:59:09.762Z,5.40
2023-02-14T02:01:13.357Z,5.53
2023-02-14T02:03:17.578Z,5.45
2023-02-14T02:05:23.681Z,5.45
2023-02-14T02:07:27.179Z,4.90
2023-02-14T02:09:31.263Z,4.75
2023-02-14T02:11:33.130Z,5.70
2023-02-14T02:13:34.543Z,4.78
2023-02-14T02:16:04.452Z,5.05
2023-02-14T02:18:26.667Z,5.47
2023-02-14T02:21:02.016Z,5.47
2023-02-14T02:23:28.087Z,4.63
2023-02-14T02:26:07.026Z,5.05
2023-02-14T02:28:36.253Z,5.25
2023-02-14T02:31:04.359Z,5.50
2023-02-14T02:33:08.986Z,4.82
2023-02-14T02:35:20.828Z,5.22
2023-02-14T02:37:34.794Z,5.53
2023-02-14T02:39:44.858Z,4.78
2023-02-14T02:41:59.715Z,4.57
2023-02-14T02:44:26.714Z,5.13
2023-02-14T02:46:47.456Z,4.47
2023-02-14T02:48:58.662Z,4.85
2023-02-14T02:51:22.000Z,5.28
2023-02-14T02:53:33.659Z,5.18
2023-02-14T02:56:10.795Z,5.03
2023-02-14T02:58:12.332Z,5.32
2023-02-14T03:00:16.139Z,5.00
2023-02-14T03:02:30.348Z,4.85
2023-02-14T03:04:52.963Z,4.75
2023-02-14T03:06:55.145Z,4.78
2023-02-14T03:08:56.522Z,4.57
2023-02-14T03:10:58.608Z,4.85
2023-02-14T03:13:21.897Z,4.82
2023-02-14T03:15:35.442Z,4.63
2023-02-14T03:18:07.393Z,4.63
2023-02-14T03:20:20.527Z,4.22
2023-02-14T03:22:34.907Z,4.28
2023-02-14T03:24:56.169Z,4.47
2023-02-14T03:27:05.856Z,4.20
2023-02-14T03:29:20.900Z,3.97
2023-02-14T03:31:59.306Z,3.88
2023-02-14T03:34:21.275Z,4.45
2023-02-14T03:36:31.409Z,4.07
2023-02-14T03:39:08.770Z,4.57
2023-02-14T03:41:21.128Z,3.80
2023-02-14T03:43:28.296Z,3.85
2023-02-14T03:47:40.643Z,3.80
2023-02-14T03:49:50.888Z,4.57
2023-02-14T03:51:56.001Z,3.97
2023-02-14T03:53:59.005Z,4.75
2023-02-14T03:56:15.385Z,4.25
2023-02-14T03:58:22.500Z,3.78
2023-02-14T04:00:24.304Z,4.63
2023-02-14T04:02:39.920Z,4.53
2023-02-14T04:04:47.733Z,4.25
2023-02-14T04:06:49.180Z,4.68
2023-02-14T04:08:50.626Z,4.57
2023-02-14T04:10:53.838Z,4.50
2023-02-14T04:12:55.303Z,4.28
2023-02-14T04:14:56.665Z,4.22
2023-02-14T04:17:16.605Z,4.72
2023-02-14T04:19:23.664Z,4.30
2023-02-14T04:21:25.121Z,4.25
2023-02-14T04:23:26.544Z,4.38
2023-02-14T04:25:28.585Z,3.92
2023-02-14T04:27:30.195Z,4.40
2023-02-14T04:29:31.560Z,4.47
2023-02-14T04:31:32.983Z,4.53
2023-02-14T04:33:34.495Z,4.68
2023-02-14T04:35:36.254Z,4.35
2023-02-14T04:37:38.114Z,5.20
2023-02-14T04:39:39.528Z,4.35
2023-02-14T04:41:40.926Z,4.47
2023-02-14T04:43:42.298Z,5.75
2023-02-14T04:45:43.988Z,6.25
2023-02-14T04:47:45.390Z,7.15
2023-02-14T04:49:46.814Z,6.00
2023-02-14T04:51:48.334Z,5.90
2023-02-14T04:53:49.713Z,6.85
2023-02-14T04:55:51.142Z,6.85
2023-02-14T04:57:52.536Z,6.88
2023-02-14T04:59:53.933Z,7.72
2023-02-14T05:01:55.365Z,6.88
2023-02-14T05:03:56.943Z,8.00
2023-02-14T05:05:58.295Z,8.15
2023-02-14T05:07:59.689Z,7.40
2023-02-14T05:10:01.094Z,7.28
2023-02-14T05:12:02.520Z,7.85
2023-02-14T05:14:04.015Z,6.85
2023-02-14T05:16:05.585Z,7.28
2023-02-14T05:18:06.991Z,6.75
2023-02-14T05:20:09.157Z,7.65
2023-02-14T05:22:10.574Z,6.95
2023-02-14T05:24:11.968Z,6.32
2023-02-14T05:26:13.627Z,6.82
2023-02-14T05:28:15.528Z,6.65
2023-02-14T05:30:17.189Z,6.95
2023-02-14T05:32:18.632Z,7.13
2023-02-14T05:34:21.688Z,5.97
2023-02-14T05:36:23.268Z,6.95
2023-02-14T05:38:24.635Z,5.18
2023-02-14T05:40:27.174Z,5.45
2023-02-14T05:42:28.564Z,5.60
2023-02-14T05:44:29.959Z,5.55
2023-02-14T05:46:31.323Z,5.28
2023-02-14T05:48:33.244Z,5.55
2023-02-14T05:50:34.644Z,5.38
2023-02-14T05:52:36.896Z,5.30
2023-02-14T05:54:38.267Z,5.55
2023-02-14T05:56:39.687Z,5.43
2023-02-14T05:58:41.107Z,6.00
2023-02-14T06:00:42.529Z,5.63
2023-02-14T06:02:43.920Z,6.53
2023-02-14T06:04:45.387Z,5.90
2023-02-14T06:06:46.793Z,6.40
2023-02-14T06:08:48.206Z,6.40
2023-02-14T06:10:49.705Z,6.30
2023-02-14T06:12:52.836Z,6.40
2023-02-14T06:14:54.244Z,6.65
2023-02-14T06:19:21.180Z,6.70
2023-02-14T06:21:22.628Z,9.90
2023-02-14T06:23:24.162Z,7.45
2023-02-14T06:25:25.923Z,6.95
2023-02-14T06:27:30.594Z,6.05
2023-02-14T06:29:31.974Z,6.10
2023-02-14T06:31:33.587Z,5.93
2023-02-14T06:33:35.018Z,6.55
2023-02-14T06:35:36.389Z,6.80
2023-02-14T06:37:38.828Z,5.70
2023-02-14T06:39:40.309Z,5.90
2023-02-14T06:41:41.722Z,6.38
2023-02-14T06:43:50.265Z,5.93
2023-02-14T06:45:51.744Z,6.55
2023-02-14T06:47:53.172Z,6.43
2023-02-14T06:49:54.628Z,6.28
2023-02-14T06:51:56.093Z,6.10
2023-02-14T06:53:57.594Z,4.97
2023-02-14T06:55:59.023Z,6.00
2023-02-14T06:58:00.481Z,5.22
2023-02-14T07:00:02.313Z,5.07
2023-02-14T07:02:03.864Z,4.45
2023-02-14T07:04:05.339Z,5.03
2023-02-14T07:06:06.911Z,4.75
2023-02-14T07:08:08.348Z,5.57
2023-02-14T07:10:10.041Z,5.32
2023-02-14T07:12:11.507Z,5.15
2023-02-14T07:14:13.776Z,5.13
2023-02-14T07:16:15.285Z,5.45
2023-02-14T07:18:16.735Z,6.32
2023-02-14T07:20:18.383Z,5.85
2023-02-14T07:22:19.755Z,4.97
2023-02-14T07:24:21.181Z,5.68
2023-02-14T07:26:22.551Z,5.38
2023-02-14T07:28:24.131Z,5.65
2023-02-14T07:30:25.606Z,5.85
2023-02-14T07:32:27.331Z,5.13
2023-02-14T07:34:28.844Z,5.65
2023-02-14T07:36:30.282Z,5.93
2023-02-14T07:38:31.676Z,5.90
2023-02-14T07:40:33.160Z,5.90
2023-02-14T07:42:34.530Z,6.20
2023-02-14T07:44:36.428Z,6.38
2023-02-14T07:46:37.910Z,6.05
2023-02-14T07:48:39.621Z,6.38
2023-02-14T07:50:41.060Z,6.90
2023-02-14T07:52:42.492Z,6.80
2023-02-14T07:54:43.937Z,7.13
2023-02-14T07:56:45.348Z,6.72
2023-02-14T07:58:46.760Z,7.30
2023-02-14T08:00:48.870Z,7.60
2023-02-14T08:02:50.228Z,7.35
2023-02-14T08:04:51.725Z,7.82
2023-02-14T08:06:54.337Z,7.78
2023-02-14T08:08:55.780Z,7.28
2023-02-14T08:10:57.719Z,7.53
2023-02-14T08:12:59.293Z,8.05
2023-02-14T08:15:20.646Z,8.32
2023-02-14T08:17:22.030Z,6.88
2023-02-14T08:19:23.386Z,7.43
2023-02-14T08:21:24.837Z,7.75
2023-02-14T08:23:26.544Z,7.93
2023-02-14T08:25:28.015Z,8.23
2023-02-14T08:27:29.454Z,7.93
2023-02-14T08:29:30.932Z,6.80
2023-02-14T08:31:36.044Z,7.63
2023-02-14T08:33:37.940Z,7.78
2023-02-14T08:35:39.432Z,7.75
2023-02-14T08:37:40.983Z,7.50
2023-02-14T08:39:42.589Z,7.30
2023-02-14T08:41:44.057Z,8.27
2023-02-14T08:43:45.710Z,7.53
2023-02-14T08:45:48.443Z,7.90
2023-02-14T08:47:49.852Z,6.85
2023-02-14T08:49:51.229Z,8.13
2023-02-14T08:51:54.499Z,7.72
2023-02-14T08:53:56.133Z,7.57
2023-02-14T08:56:02.757Z,7.32
2023-02-14T08:58:05.156Z,7.93
2023-02-14T09:00:07.842Z,7.15
2023-02-14T09:02:13.365Z,7.75
2023-02-14T09:04:14.954Z,7.95
2023-02-14T09:06:17.688Z,8.25
2023-02-14T09:08:19.442Z,7.45
2023-02-14T09:10:20.884Z,7.47
2023-02-14T09:12:22.357Z,7.60
2023-02-14T09:14:24.338Z,7.60
2023-02-14T09:16:26.385Z,7.45
2023-02-14T09:18:27.847Z,7.15
2023-02-14T09:20:29.313Z,7.47
2023-02-14T09:22:30.807Z,6.93
2023-02-14T09:24:34.171Z,7.10
2023-02-14T09:26:36.891Z,6.85
2023-02-14T09:28:38.688Z,7.60
2023-02-14T09:30:40.132Z,6.80
2023-02-14T09:32:41.548Z,7.03
2023-02-14T09:34:43.692Z,6.57
2023-02-14T09:37:06.279Z,6.97
2023-02-14T09:39:07.891Z,6.95
2023-02-14T09:41:24.941Z,6.40
2023-02-14T09:46:29.875Z,6.97
2023-02-14T09:48:38.044Z,6.38
2023-02-14T09:50:45.914Z,6.63
2023-02-14T09:52:51.330Z,6.60
2023-02-14T09:54:57.521Z,7.22
2023-02-14T09:57:03.961Z,5.97
2023-02-14T09:59:19.285Z,6.43
2023-02-14T10:01:36.529Z,6.22
2023-02-14T10:03:40.958Z,6.80
2023-02-14T10:05:59.192Z,6.85
2023-02-14T10:08:12.497Z,6.10
2023-02-14T10:12:31.732Z,6.53
2023-02-14T10:14:40.297Z,4.90
2023-02-14T10:16:56.080Z,5.93
2023-02-14T10:19:09.482Z,5.45
2023-02-14T10:23:33.493Z,5.18
2023-02-14T10:25:45.052Z,4.85
2023-02-14T10:27:47.118Z,5.55
2023-02-14T10:29:48.665Z,4.65
2023-02-14T10:32:03.909Z,4.82
2023-02-14T10:34:16.179Z,5.43
2023-02-14T10:36:23.922Z,4.68
2023-02-14T10:38:48.460Z,5.30
2023-02-14T10:41:10.659Z,4.40
2023-02-14T10:43:30.624Z,4.57
2023-02-14T10:46:11.899Z,4.40
2023-02-14T10:48:19.166Z,4.40
2023-02-14T10:50:26.640Z,4.40
2023-02-14T10:52:39.865Z,4.20
2023-02-14T10:54:53.567Z,4.15
2023-02-14T10:57:01.308Z,3.80
2023-02-14T10:59:17.042Z,4.07
2023-02-14T11:01:18.889Z,4.28
2023-02-14T11:03:20.377Z,3.60
2023-02-14T11:05:32.406Z,3.67
2023-02-14T11:07:34.534Z,3.60
2023-02-14T11:09:39.194Z,3.58
2023-02-14T11:11:46.690Z,3.42
2023-02-14T11:13:48.710Z,3.47
2023-02-14T11:15:51.793Z,3.08
2023-02-14T11:18:24.765Z,2.88
2023-02-14T11:20:30.445Z,2.58
2023-02-14T11:22:34.602Z,2.92
2023-02-14T11:24:41.354Z,2.88
2023-02-14T11:26:46.880Z,3.03
2023-02-14T11:29:00.552Z,2.60
2023-02-14T11:31:02.899Z,3.47
2023-02-14T11:33:05.416Z,2.78
2023-02-14T11:35:34.257Z,3.20
2023-02-14T11:37:43.991Z,2.85
2023-02-14T11:39:45.464Z,2.65
2023-02-14T11:42:05.751Z,2.65
2023-02-14T11:44:22.259Z,2.67
2023-02-14T11:46:24.709Z,2.78
2023-02-14T11:49:34.053Z,3.00
2023-02-14T11:52:38.292Z,2.60
2023-02-14T12:02:10.397Z,2.17
2023-02-14T12:07:14.300Z,2.00
2023-02-14T12:09:21.628Z,2.22
2023-02-14T12:11:24.345Z,2.40
2023-02-14T12:13:26.560Z,2.28
2023-02-14T12:15:40.313Z,2.75
2023-02-14T12:17:44.368Z,2.80
2023-02-14T12:20:15.140Z,2.40
2023-02-14T12:22:22.984Z,2.25
2023-02-14T12:24:24.401Z,2.10
2023-02-14T12:26:28.584Z,2.60
2023-02-14T12:28:39.416Z,2.13
2023-02-14T12:30:41.462Z,2.10
2023-02-14T12:32:54.299Z,2.28
2023-02-14T12:34:58.775Z,2.13
2023-02-14T12:37:40.563Z,1.88
2023-02-14T12:39:48.945Z,1.83
2023-02-14T12:42:23.643Z,1.75
2023-02-14T12:44:34.068Z,1.92
2023-02-14T12:46:51.355Z,1.70
2023-02-14T12:49:14.508Z,1.80
2023-02-14T12:51:34.520Z,2.00
2023-02-14T12:54:03.495Z,2.03
2023-02-14T12:57:02.272Z,1.80
2023-02-14T12:59:12.897Z,1.83
2023-02-14T13:01:24.755Z,2.00
2023-02-14T13:03:59.497Z,1.70
2023-02-14T13:06:21.920Z,1.75
2023-02-14T13:08:40.822Z,1.17
2023-02-14T13:10:51.341Z,1.40
2023-02-14T13:12:55.366Z,1.50
2023-02-14T13:15:12.238Z,2.10
2023-02-14T13:17:16.354Z,1.80
2023-02-14T13:19:45.176Z,1.60
2023-02-14T13:21:49.429Z,1.70
2023-02-14T13:23:56.158Z,1.52
2023-02-14T13:26:10.043Z,1.75
2023-02-14T13:28:13.804Z,1.63
2023-02-14T13:30:34.621Z,1.70
2023-02-14T13:32:41.981Z,1.60
2023-02-14T13:34:47.795Z,1.52
2023-02-14T13:36:49.632Z,1.50
2023-02-14T13:40:59.366Z,1.60
2023-02-14T13:43:02.405Z,1.30
2023-02-14T13:45:04.054Z,1.38
2023-02-14T13:47:23.062Z,1.60
2023-02-14T13:49:33.095Z,1.55
2023-02-14T13:51:45.629Z,1.60
2023-02-14T13:53:48.784Z,1.63
2023-02-14T13:55:55.726Z,1.45
2023-02-14T13:58:07.571Z,1.10
2023-02-14T14:00:17.752Z,1.50
2023-02-14T14:02:30.120Z,1.30
2023-02-14T14:04:32.016Z,1.77
2023-02-14T14:07:05.218Z,1.70
2023-02-14T14:09:30.234Z,1.60
2023-02-14T14:11:49.111Z,1.65
2023-02-14T14:13:50.700Z,1.50
2023-02-14T14:16:19.874Z,1.45
2023-02-14T14:18:43.207Z,1.30
2023-02-14T14:20:47.978Z,1.30
2023-02-14T14:22:52.910Z,1.42
2023-02-14T14:25:00.956Z,1.40
2023-02-14T14:27:18.388Z,1.50
2023-02-14T14:29:29.839Z,1.50
2023-02-14T14:31:31.403Z,1.58
2023-02-14T14:33:34.502Z,1.73
2023-02-14T14:35:35.890Z,1.23
2023-02-14T14:37:52.866Z,1.40
2023-02-14T14:39:57.677Z,1.40
2023-02-14T14:42:13.507Z,1.40
2023-02-14T14:44:15.278Z,1.95
2023-02-14T14:46:17.179Z,1.38
2023-02-14T14:48:33.081Z,1.20
2023-02-14T14:50:35.479Z,1.83
2023-02-14T14:52:41.884Z,1.40
2023-02-14T14:54:43.668Z,1.55
2023-02-14T14:56:57.004Z,1.45
2023-02-14T14:59:15.290Z,1.20
2023-02-14T15:01:50.203Z,1.65
2023-02-14T15:03:51.606Z,1.30
2023-02-14T15:06:19.426Z,1.30
2023-02-14T15:08:32.617Z,1.60
2023-02-14T15:10:34.954Z,1.45
2023-02-14T15:12:55.082Z,1.50
2023-02-14T15:14:57.623Z,1.45
2023-02-14T15:17:03.494Z,1.13
2023-02-14T15:19:11.335Z,1.30
2023-02-14T15:21:13.959Z,1.40
2023-02-14T15:23:20.878Z,1.60
2023-02-14T15:25:32.983Z,2.95
2023-02-14T15:27:40.171Z,4.43
2023-02-14T15:29:41.618Z,4.25
2023-02-14T15:31:43.518Z,4.32
2023-02-14T15:33:45.335Z,3.92
2023-02-14T15:35:46.976Z,4.00
2023-02-14T15:37:50.261Z,4.15
2023-02-14T15:39:55.636Z,4.25
2023-02-14T15:41:57.244Z,3.97
2023-02-14T15:43:59.274Z,4.57
2023-02-14T15:46:17.756Z,4.22
2023-02-14T15:48:33.325Z,4.30
2023-02-14T15:50:36.501Z,3.95
2023-02-14T15:52:40.752Z,4.75
2023-02-14T15:54:46.400Z,4.30
2023-02-14T15:56:51.287Z,4.50
2023-02-14T15:58:59.555Z,4.22
2023-02-14T16:01:01.505Z,3.80
2023-02-14T16:03:08.774Z,4.18
2023-02-14T16:05:24.027Z,3.88
2023-02-14T16:07:28.174Z,4.55
2023-02-14T16:09:31.501Z,3.92
2023-02-14T16:11:37.018Z,4.20
2023-02-14T16:13:39.285Z,3.83
2023-02-14T16:15:59.684Z,3.65
2023-02-14T16:18:08.211Z,3.67
2023-02-14T16:20:23.348Z,4.15
2023-02-14T16:22:38.185Z,3.92
2023-02-14T16:24:40.325Z,3.70
2023-02-14T16:26:43.631Z,4.15
2023-02-14T16:28:45.016Z,3.70
2023-02-14T16:30:52.676Z,4.35
2023-02-14T16:32:57.070Z,3.75
2023-02-14T16:34:59.947Z,3.95
2023-02-14T16:37:08.426Z,4.05
2023-02-14T16:39:23.157Z,3.63
2023-02-14T16:41:27.274Z,3.55
2023-02-14T16:43:28.696Z,3.63
2023-02-14T16:45:30.371Z,3.80
2023-02-14T16:47:31.769Z,3.53
2023-02-14T16:49:33.134Z,3.88
2023-02-14T16:51:36.051Z,3.78
2023-02-14T16:53:37.553Z,4.22
2023-02-14T16:55:40.402Z,4.32
2023-02-14T16:57:45.381Z,4.20
2023-02-14T16:59:47.122Z,4.55
2023-02-14T17:01:48.795Z,4.80
2023-02-14T17:03:50.309Z,4.32
2023-02-14T17:05:52.049Z,5.07
2023-02-14T17:07:53.528Z,3.90
2023-02-14T17:10:00.193Z,4.10
2023-02-14T17:12:06.080Z,4.05
2023-02-14T17:14:08.510Z,4.85
2023-02-14T17:16:12.909Z,7.13
2023-02-14T17:18:16.400Z,7.10
2023-02-14T17:20:20.146Z,6.70
2023-02-14T17:22:21.618Z,6.68
2023-02-14T17:24:23.061Z,5.68
2023-02-14T17:26:24.706Z,4.93
2023-02-14T17:28:26.707Z,5.80
2023-02-14T17:30:28.622Z,5.68
2023-02-14T17:32:30.204Z,5.22
2023-02-14T17:34:33.010Z,4.88
2023-02-14T17:36:34.683Z,4.85
2023-02-14T17:38:36.649Z,5.22
2023-02-14T17:40:38.296Z,4.93
2023-02-14T17:42:40.207Z,5.00
2023-02-14T17:44:41.833Z,5.53
2023-02-14T17:46:43.198Z,5.03
2023-02-14T17:48:45.981Z,5.07
2023-02-14T17:50:47.427Z,4.97
2023-02-14T17:52:53.567Z,5.45
2023-02-14T17:54:55.001Z,5.80
2023-02-14T17:56:57.547Z,5.70
2023-02-14T17:58:59.763Z,7.20
2023-02-14T18:01:06.371Z,7.13
2023-02-14T18:03:07.903Z,7.28
2023-02-14T18:05:09.369Z,6.65
2023-02-14T18:07:10.738Z,6.32
2023-02-14T18:09:12.136Z,6.13
2023-02-14T18:11:14.083Z,5.75
2023-02-14T18:13:15.442Z,5.78
2023-02-14T18:15:16.927Z,5.45
2023-02-14T18:17:18.362Z,6.05
2023-02-14T18:19:19.772Z,9.63
2023-02-14T18:21:21.757Z,7.38
2023-02-14T18:23:23.308Z,7.70
2023-02-14T18:25:24.726Z,6.45
2023-02-14T18:27:26.213Z,6.40
2023-02-14T18:29:27.655Z,6.28
2023-02-14T18:31:29.202Z,6.22
2023-02-14T18:33:30.908Z,5.85
2023-02-14T18:35:32.287Z,5.78
2023-02-14T18:37:33.642Z,5.32
2023-02-14T18:39:35.068Z,5.55
2023-02-14T18:41:36.730Z,5.28
2023-02-14T18:43:38.694Z,5.72
2023-02-14T18:45:40.555Z,5.20
2023-02-14T18:47:41.943Z,5.95
2023-02-14T18:49:43.338Z,5.53
2023-02-14T18:51:44.834Z,5.28
2023-02-14T18:53:47.037Z,5.40
2023-02-14T18:55:48.442Z,5.22
2023-02-14T18:57:49.801Z,6.10
2023-02-14T18:59:51.204Z,5.75
2023-02-14T19:01:52.755Z,6.03
2023-02-14T19:03:54.806Z,5.97
2023-02-14T19:05:59.336Z,6.53
2023-02-14T19:08:00.863Z,6.05
2023-02-14T19:10:04.145Z,7.18
2023-02-14T19:12:07.042Z,6.30
2023-02-14T19:14:12.564Z,6.63
2023-02-14T19:16:18.928Z,6.65
2023-02-14T19:18:21.018Z,6.35
2023-02-14T19:20:22.400Z,6.90
2023-02-14T19:22:23.922Z,6.82
2023-02-14T19:24:25.684Z,6.28
2023-02-14T19:26:29.943Z,6.03
2023-02-14T19:28:31.345Z,6.38
2023-02-14T19:30:33.404Z,6.10
2023-02-14T19:32:34.775Z,6.47
2023-02-14T19:34:36.616Z,6.30
2023-02-14T19:36:38.010Z,6.15
2023-02-14T19:38:41.025Z,7.28
2023-02-14T19:40:45.489Z,6.18
2023-02-14T19:42:46.901Z,6.45
2023-02-14T19:44:48.770Z,7.18
2023-02-14T19:46:50.286Z,6.50
2023-02-14T19:48:52.245Z,8.35
2023-02-14T19:50:54.215Z,6.78
2023-02-14T19:52:55.584Z,7.15
2023-02-14T19:54:57.420Z,6.90
2023-02-14T19:56:58.838Z,7.43
2023-02-14T19:59:00.684Z,6.85
2023-02-14T20:01:02.386Z,7.45
2023-02-14T20:03:04.087Z,6.43
2023-02-14T20:05:05.809Z,7.03
2023-02-14T20:07:08.332Z,6.57
2023-02-14T20:09:09.838Z,7.57
2023-02-14T20:11:33.510Z,6.80
2023-02-14T20:13:34.860Z,7.43
2023-02-14T20:15:37.497Z,6.68
2023-02-14T20:17:39.410Z,6.80
2023-02-14T20:19:40.777Z,6.85
2023-02-14T20:21:46.626Z,6.75
2023-02-14T20:23:48.006Z,7.13
2023-02-14T20:25:49.445Z,6.68
2023-02-14T20:27:54.320Z,7.10
2023-02-14T20:29:55.798Z,6.80
2023-02-14T20:31:59.780Z,6.38
2023-02-14T20:34:01.896Z,6.50
2023-02-14T20:36:05.049Z,7.28
2023-02-14T20:38:07.654Z,6.50
2023-02-14T20:40:10.772Z,6.05
2023-02-14T20:42:12.154Z,6.20
2023-02-14T20:44:16.867Z,6.63
2023-02-14T20:46:18.368Z,6.70
2023-02-14T20:48:19.788Z,6.22
2023-02-14T20:50:21.298Z,6.60
2023-02-14T20:52:22.993Z,5.75
2023-02-14T20:54:26.415Z,6.43
2023-02-14T20:56:28.028Z,5.80
2023-02-14T20:58:33.555Z,6.18
2023-02-14T21:00:34.943Z,6.45
2023-02-14T21:02:36.336Z,6.85
2023-02-14T21:04:37.927Z,6.28
2023-02-14T21:06:40.135Z,6.80
2023-02-14T21:08:42.938Z,6.63
2023-02-14T21:10:44.335Z,6.43
2023-02-14T21:12:45.885Z,6.95
2023-02-14T21:14:47.321Z,7.30
2023-02-14T21:16:48.838Z,7.53
2023-02-14T21:18:55.121Z,7.00
2023-02-14T21:21:07.354Z,6.80
2023-02-14T21:23:08.742Z,7.40
2023-02-14T21:25:10.153Z,7.15
2023-02-14T21:27:11.555Z,7.28
2023-02-14T21:29:12.997Z,6.60
2023-02-14T21:31:17.379Z,6.93
2023-02-14T21:33:18.991Z,7.18
2023-02-14T21:35:20.394Z,6.65
2023-02-14T21:37:22.403Z,7.53
2023-02-14T21:39:27.765Z,7.55
2023-02-14T21:41:30.365Z,7.75
2023-02-14T21:43:36.111Z,7.75
2023-02-14T21:45:56.762Z,8.32
2023-02-14T21:48:16.986Z,8.05
2023-02-14T21:50:30.265Z,8.85
2023-02-14T21:52:31.663Z,7.93
2023-02-14T21:54:33.052Z,7.28
2023-02-14T21:56:36.392Z,7.75
2023-02-14T21:58:38.510Z,7.78
2023-02-14T22:00:39.943Z,7.57
2023-02-14T22:02:41.391Z,7.97
2023-02-14T22:04:44.190Z,7.47
2023-02-14T22:06:45.628Z,8.20
2023-02-14T22:08:51.998Z,7.25
2023-02-14T22:10:53.387Z,7.50
2023-02-14T22:12:54.808Z,7.90
2023-02-14T22:14:56.248Z,6.97
2023-02-14T22:16:57.633Z,8.50
2023-02-14T22:18:59.012Z,7.45
2023-02-14T22:21:11.917Z,8.43
2023-02-14T22:23:13.312Z,9.23
2023-02-14T22:25:14.834Z,7.95
2023-02-14T22:27:16.250Z,8.82
2023-02-14T22:29:17.609Z,8.23
2023-02-14T22:31:19.584Z,8.98
2023-02-14T22:33:21.184Z,9.32
2023-02-14T22:35:22.550Z,8.38
2023-02-14T22:37:24.022Z,8.95
2023-02-14T22:39:25.446Z,8.65
2023-02-14T22:41:27.158Z,8.35
2023-02-14T22:43:28.579Z,8.60
2023-02-14T22:45:29.926Z,9.07
2023-02-14T22:47:32.106Z,7.82
2023-02-14T22:49:33.502Z,8.80
2023-02-14T22:51:39.703Z,8.82
2023-02-14T22:53:41.078Z,8.43
2023-02-14T22:55:42.512Z,9.65
2023-02-14T22:57:43.879Z,8.45
2023-02-14T22:59:45.298Z,9.13
2023-02-14T23:01:48.495Z,9.00
2023-02-14T23:03:57.511Z,8.25
2023-02-14T23:05:59.689Z,8.07
2023-02-14T23:08:01.981Z,8.45
2023-02-14T23:10:03.644Z,8.30
2023-02-14T23:12:25.293Z,8.88
2023-02-14T23:14:45.019Z,9.50
2023-02-14T23:19:28.204Z,8.60
2023-02-14T23:21:48.452Z,8.45
2023-02-14T23:23:49.868Z,9.20
2023-02-14T23:25:51.350Z,8.73
2023-02-14T23:27:52.707Z,9.50
2023-02-14T23:29:54.137Z,9.13
2023-02-14T23:31:55.715Z,8.82
2023-02-14T23:33:57.111Z,9.15
2023-02-14T23:36:03.131Z,8.85
2023-02-14T23:38:04.807Z,9.68
2023-02-14T23:40:06.908Z,9.63
2023-02-14T23:42:14.940Z,8.95
2023-02-14T23:44:17.452Z,8.70
2023-02-14T23:46:18.813Z,9.75
2023-02-14T23:48:20.229Z,9.57
2023-02-14T23:50:21.737Z,9.73
2023-02-14T23:52:23.095Z,8.82
2023-02-14T23:54:25.026Z,9.07
2023-02-14T23:56:26.575Z,9.60
2023-02-14T23:58:28.210Z,9.68
